Ever Develop — 3FLF8 — position and weather

sailwx.info

Track history (hours):
 
Tides and Currents Weather Stations Pressure Air Temp Water Temp Dewpoint Dewpoint Depression Visibility Wind Speed Wind Dir Waves Ship Positions

Ever Develop

Last reported at 2017-Aug-13 20:14 UTC. Time now 2017-Aug-17 03:31 UTC.
Position N 01°19' E 103°21'.

Type: Ship (hazmat cat D). MMSI: 356391000.

Date/timePositionNaut miles runAvg speedWind from/ knotsBaromVisibWave heightAir tempDewpointWater temp
2017-Aug-13 20:14N 01°19' E 103°21'413.9
2017-Aug-13 19:55N 01°16' E 103°24'613.4
2017-Aug-13 19:31N 01°14' E 103°29'713.6
2017-Aug-13 19:01N 01°12' E 103°36'510.1
2017-Aug-13 18:31N 01°13' E 103°41'611.9
2017-Aug-13 18:00N 01°16' E 103°46'1 2.8
2017-Aug-13 17:30N 01°16' E 103°47'0 0.0
2017-Aug-13 16:58N 01°16' E 103°47'0 0.0
2017-Aug-13 16:25N 01°16' E 103°47'0 0.0
2017-Aug-13 15:58N 01°16' E 103°47'0 0.0
2017-Aug-13 15:25N 01°16' E 103°47'0 0.0
2017-Aug-13 14:55N 01°16' E 103°47'0 0.0
2017-Aug-13 14:28N 01°16' E 103°47'0 0.0
2017-Aug-13 13:58N 01°16' E 103°47'0 0.0
2017-Aug-13 13:25N 01°16' E 103°47'0 0.0
2017-Aug-13 12:58N 01°16' E 103°47'0 0.0
2017-Aug-13 12:28N 01°16' E 103°47'0 0.0
2017-Aug-13 11:58N 01°16' E 103°47'0 0.0
2017-Aug-13 11:28N 01°16' E 103°47'0 0.0
2017-Aug-13 10:58N 01°16' E 103°47'0 0.0
2017-Aug-13 10:28N 01°16' E 103°47'0 0.0
2017-Aug-13 09:58N 01°16' E 103°47'0 0.0
2017-Aug-13 09:28N 01°16' E 103°47'0 0.0
2017-Aug-13 08:55N 01°16' E 103°47'0 0.0
2017-Aug-13 08:28N 01°16' E 103°47'0 0.0
2017-Aug-13 07:58N 01°16' E 103°47'0 0.0
2017-Aug-13 07:28N 01°16' E 103°47'0 0.0
2017-Aug-13 06:58N 01°16' E 103°47'0 0.0
2017-Aug-13 06:28N 01°16' E 103°47'0 0.0
2017-Aug-13 05:55N 01°16' E 103°47'0 0.0
2017-Aug-13 05:28N 01°16' E 103°47'0 0.0
2017-Aug-13 04:58N 01°16' E 103°47'0 0.0
2017-Aug-13 04:25N 01°16' E 103°47'0 0.0
2017-Aug-13 03:58N 01°16' E 103°47'0 0.0
2017-Aug-13 03:28N 01°16' E 103°47'0 0.0
2017-Aug-13 02:58N 01°16' E 103°47'0 0.0
2017-Aug-13 02:28N 01°16' E 103°47'0 0.0
2017-Aug-13 01:58N 01°16' E 103°47'0 0.0
2017-Aug-13 01:28N 01°16' E 103°47'0 0.0
2017-Aug-13 00:58N 01°16' E 103°47'0 0.0
2017-Aug-13 00:30N 01°16' E 103°47'1 2.1
2017-Aug-13 00:00N 01°15' E 103°47'2 3.0
2017-Aug-12 23:25N 01°14' E 103°48'0 0.0
2017-Aug-12 23:00N 01°14' E 103°48'0 0.0
2017-Aug-12 22:30N 01°14' E 103°48'0 0.0
2017-Aug-12 21:59N 01°14' E 103°48'0 0.0
2017-Aug-12 21:30N 01°14' E 103°48'0 0.0
2017-Aug-12 21:00N 01°14' E 103°48'0 0.1
2017-Aug-12 20:30N 01°14' E 103°48'0 0.1
2017-Aug-12 20:00N 01°14' E 103°48'0 0.1
2017-Aug-12 19:30N 01°14' E 103°48'0 0.0
2017-Aug-12 18:59N 01°14' E 103°48'0 0.0
2017-Aug-12 18:30N 01°14' E 103°48'0 0.2
2017-Aug-12 18:00N 01°14' E 103°48'1 1.1
2017-Aug-12 17:30N 01°14' E 103°47'3 6.3
2017-Aug-12 17:00N 01°15' E 103°44'510.3
2017-Aug-12 16:30N 01°12' E 103°39'4 8.4
2017-Aug-12 15:59N 01°13' E 103°35'3 5.7
2017-Aug-12 15:30N 01°13' E 103°32'1 2.7
2017-Aug-12 15:00N 01°14' E 103°31'0 0.3
2017-Aug-12 14:30N 01°14' E 103°31'1 2.6
2017-Aug-12 14:00N 01°15' E 103°32'510.1
2017-Aug-12 13:30N 01°20' E 103°33'1 2.5
2017-Aug-12 13:00N 01°21' E 103°33'0 0.0
2017-Aug-12 12:30N 01°21' E 103°33'0 0.0
2017-Aug-12 11:59N 01°21' E 103°33'0 0.0
2017-Aug-12 11:23N 01°21' E 103°33'0 0.0
2017-Aug-12 10:59N 01°21' E 103°33'0 0.0
2017-Aug-12 10:26N 01°21' E 103°33'0 0.0
2017-Aug-12 09:59N 01°21' E 103°33'0 0.0
2017-Aug-12 09:26N 01°21' E 103°33'0 0.0
2017-Aug-12 08:53N 01°21' E 103°33'0 0.0
2017-Aug-12 08:29N 01°21' E 103°33'0 0.0
2017-Aug-12 07:59N 01°21' E 103°33'0 0.0
2017-Aug-12 07:29N 01°21' E 103°33'0 0.0
2017-Aug-12 06:59N 01°21' E 103°33'0 0.0
2017-Aug-12 06:11N 01°21' E 103°33'0 0.0
2017-Aug-12 05:56N 01°21' E 103°33'0 0.0
2017-Aug-12 05:08N 01°21' E 103°33'0 0.0
2017-Aug-12 04:59N 01°21' E 103°33'0 0.0
2017-Aug-12 04:23N 01°21' E 103°33'0 0.0
2017-Aug-12 03:56N 01°21' E 103°33'0 0.0
2017-Aug-12 03:29N 01°21' E 103°33'0 0.0
2017-Aug-12 02:56N 01°21' E 103°33'0 0.0
2017-Aug-12 02:30N 01°21' E 103°33'0 0.0
2017-Aug-12 02:00N 01°21' E 103°33'0 0.0
2017-Aug-12 01:31N 01°21' E 103°33'0 0.0
2017-Aug-12 01:00N 01°21' E 103°33'0 0.0
2017-Aug-12 00:30N 01°21' E 103°33'0 0.0
2017-Aug-12 00:01N 01°21' E 103°33'0 0.0
2017-Aug-11 23:30N 01°21' E 103°33'0 0.0
2017-Aug-11 23:01N 01°21' E 103°33'0 0.0
2017-Aug-11 22:30N 01°21' E 103°33'0 0.0
2017-Aug-11 22:00N 01°21' E 103°33'0 0.0
2017-Aug-11 21:31N 01°21' E 103°33'0 0.0
2017-Aug-11 21:00N 01°21' E 103°33'0 0.0
2017-Aug-11 20:30N 01°21' E 103°33'0 0.0
2017-Aug-11 19:59N 01°21' E 103°33'0 0.0
2017-Aug-11 19:30N 01°21' E 103°33'0 0.0
2017-Aug-11 19:00N 01°21' E 103°33'0 0.0
2017-Aug-11 18:30N 01°21' E 103°33'0 0.0
2017-Aug-11 18:01N 01°21' E 103°33'0 0.0
2017-Aug-11 17:30N 01°21' E 103°33'0 0.0
2017-Aug-11 17:00N 01°21' E 103°33'0 0.0
2017-Aug-11 16:30N 01°21' E 103°33'0 0.0
2017-Aug-11 16:00N 01°21' E 103°33'0 0.0
2017-Aug-11 15:30N 01°21' E 103°33'0 0.0
2017-Aug-11 15:01N 01°21' E 103°33'0 0.0
2017-Aug-11 14:31N 01°21' E 103°33'6 5.6
2017-Aug-11 13:30N 01°15' E 103°32'3 7.0
2017-Aug-11 13:00N 01°12' E 103°31'3 5.9
2017-Aug-11 12:30N 01°11' E 103°28'610.5
2017-Aug-11 11:53N 01°13' E 103°23'512.7
2017-Aug-11 11:29N 01°17' E 103°19'  
Track history (hours):
 
Tides and Currents Weather Stations Pressure Air Temp Water Temp Dewpoint Dewpoint Depression Visibility Wind Speed Wind Dir Waves Ship Positions

Ever Develop

Last reported at 2017-Aug-13 20:14 UTC. Time now 2017-Aug-17 03:31 UTC.
Position N 01°19' E 103°21'.

Type: Ship (hazmat cat D). MMSI: 356391000.

Date/timePositionNaut miles runAvg speedWind from/ knotsBaromVisibWave heightAir tempDewpointWater temp
2017-Aug-13 20:14N 01°19' E 103°21'413.9
2017-Aug-13 19:55N 01°16' E 103°24'613.4
2017-Aug-13 19:31N 01°14' E 103°29'713.6
2017-Aug-13 19:01N 01°12' E 103°36'510.1
2017-Aug-13 18:31N 01°13' E 103°41'611.9
2017-Aug-13 18:00N 01°16' E 103°46'1 2.8
2017-Aug-13 17:30N 01°16' E 103°47'0 0.0
2017-Aug-13 16:58N 01°16' E 103°47'0 0.0
2017-Aug-13 16:25N 01°16' E 103°47'0 0.0
2017-Aug-13 15:58N 01°16' E 103°47'0 0.0
2017-Aug-13 15:25N 01°16' E 103°47'0 0.0
2017-Aug-13 14:55N 01°16' E 103°47'0 0.0
2017-Aug-13 14:28N 01°16' E 103°47'0 0.0
2017-Aug-13 13:58N 01°16' E 103°47'0 0.0
2017-Aug-13 13:25N 01°16' E 103°47'0 0.0
2017-Aug-13 12:58N 01°16' E 103°47'0 0.0
2017-Aug-13 12:28N 01°16' E 103°47'0 0.0
2017-Aug-13 11:58N 01°16' E 103°47'0 0.0
2017-Aug-13 11:28N 01°16' E 103°47'0 0.0
2017-Aug-13 10:58N 01°16' E 103°47'0 0.0
2017-Aug-13 10:28N 01°16' E 103°47'0 0.0
2017-Aug-13 09:58N 01°16' E 103°47'0 0.0
2017-Aug-13 09:28N 01°16' E 103°47'0 0.0
2017-Aug-13 08:55N 01°16' E 103°47'0 0.0
2017-Aug-13 08:28N 01°16' E 103°47'0 0.0
2017-Aug-13 07:58N 01°16' E 103°47'0 0.0
2017-Aug-13 07:28N 01°16' E 103°47'0 0.0
2017-Aug-13 06:58N 01°16' E 103°47'0 0.0
2017-Aug-13 06:28N 01°16' E 103°47'0 0.0
2017-Aug-13 05:55N 01°16' E 103°47'0 0.0
2017-Aug-13 05:28N 01°16' E 103°47'0 0.0
2017-Aug-13 04:58N 01°16' E 103°47'0 0.0
2017-Aug-13 04:25N 01°16' E 103°47'0 0.0
2017-Aug-13 03:58N 01°16' E 103°47'0 0.0
2017-Aug-13 03:28N 01°16' E 103°47'0 0.0
2017-Aug-13 02:58N 01°16' E 103°47'0 0.0
2017-Aug-13 02:28N 01°16' E 103°47'0 0.0
2017-Aug-13 01:58N 01°16' E 103°47'0 0.0
2017-Aug-13 01:28N 01°16' E 103°47'0 0.0
2017-Aug-13 00:58N 01°16' E 103°47'0 0.0
2017-Aug-13 00:30N 01°16' E 103°47'1 2.1
2017-Aug-13 00:00N 01°15' E 103°47'2 3.0
2017-Aug-12 23:25N 01°14' E 103°48'0 0.0
2017-Aug-12 23:00N 01°14' E 103°48'0 0.0
2017-Aug-12 22:30N 01°14' E 103°48'0 0.0
2017-Aug-12 21:59N 01°14' E 103°48'0 0.0
2017-Aug-12 21:30N 01°14' E 103°48'0 0.0
2017-Aug-12 21:00N 01°14' E 103°48'0 0.1
2017-Aug-12 20:30N 01°14' E 103°48'0 0.1
2017-Aug-12 20:00N 01°14' E 103°48'0 0.1
2017-Aug-12 19:30N 01°14' E 103°48'0 0.0
2017-Aug-12 18:59N 01°14' E 103°48'0 0.0
2017-Aug-12 18:30N 01°14' E 103°48'0 0.2
2017-Aug-12 18:00N 01°14' E 103°48'1 1.1
2017-Aug-12 17:30N 01°14' E 103°47'3 6.3
2017-Aug-12 17:00N 01°15' E 103°44'510.3
2017-Aug-12 16:30N 01°12' E 103°39'4 8.4
2017-Aug-12 15:59N 01°13' E 103°35'3 5.7
2017-Aug-12 15:30N 01°13' E 103°32'1 2.7
2017-Aug-12 15:00N 01°14' E 103°31'0 0.3
2017-Aug-12 14:30N 01°14' E 103°31'1 2.6
2017-Aug-12 14:00N 01°15' E 103°32'510.1
2017-Aug-12 13:30N 01°20' E 103°33'1 2.5
2017-Aug-12 13:00N 01°21' E 103°33'0 0.0
2017-Aug-12 12:30N 01°21' E 103°33'0 0.0
2017-Aug-12 11:59N 01°21' E 103°33'0 0.0
2017-Aug-12 11:23N 01°21' E 103°33'0 0.0
2017-Aug-12 10:59N 01°21' E 103°33'0 0.0
2017-Aug-12 10:26N 01°21' E 103°33'0 0.0
2017-Aug-12 09:59N 01°21' E 103°33'0 0.0
2017-Aug-12 09:26N 01°21' E 103°33'0 0.0
2017-Aug-12 08:53N 01°21' E 103°33'0 0.0
2017-Aug-12 08:29N 01°21' E 103°33'0 0.0
2017-Aug-12 07:59N 01°21' E 103°33'0 0.0
2017-Aug-12 07:29N 01°21' E 103°33'0 0.0
2017-Aug-12 06:59N 01°21' E 103°33'0 0.0
2017-Aug-12 06:11N 01°21' E 103°33'0 0.0
2017-Aug-12 05:56N 01°21' E 103°33'0 0.0
2017-Aug-12 05:08N 01°21' E 103°33'0 0.0
2017-Aug-12 04:59N 01°21' E 103°33'0 0.0
2017-Aug-12 04:23N 01°21' E 103°33'0 0.0
2017-Aug-12 03:56N 01°21' E 103°33'0 0.0
2017-Aug-12 03:29N 01°21' E 103°33'0 0.0
2017-Aug-12 02:56N 01°21' E 103°33'0 0.0
2017-Aug-12 02:30N 01°21' E 103°33'0 0.0
2017-Aug-12 02:00N 01°21' E 103°33'0 0.0
2017-Aug-12 01:31N 01°21' E 103°33'0 0.0
2017-Aug-12 01:00N 01°21' E 103°33'0 0.0
2017-Aug-12 00:30N 01°21' E 103°33'0 0.0
2017-Aug-12 00:01N 01°21' E 103°33'0 0.0
2017-Aug-11 23:30N 01°21' E 103°33'0 0.0
2017-Aug-11 23:01N 01°21' E 103°33'0 0.0
2017-Aug-11 22:30N 01°21' E 103°33'0 0.0
2017-Aug-11 22:00N 01°21' E 103°33'0 0.0
2017-Aug-11 21:31N 01°21' E 103°33'0 0.0
2017-Aug-11 21:00N 01°21' E 103°33'0 0.0
2017-Aug-11 20:30N 01°21' E 103°33'0 0.0
2017-Aug-11 19:59N 01°21' E 103°33'0 0.0
2017-Aug-11 19:30N 01°21' E 103°33'0 0.0
2017-Aug-11 19:00N 01°21' E 103°33'0 0.0
2017-Aug-11 18:30N 01°21' E 103°33'0 0.0
2017-Aug-11 18:01N 01°21' E 103°33'0 0.0
2017-Aug-11 17:30N 01°21' E 103°33'0 0.0
2017-Aug-11 17:00N 01°21' E 103°33'0 0.0
2017-Aug-11 16:30N 01°21' E 103°33'0 0.0
2017-Aug-11 16:00N 01°21' E 103°33'0 0.0
2017-Aug-11 15:30N 01°21' E 103°33'0 0.0
2017-Aug-11 15:01N 01°21' E 103°33'0 0.0
2017-Aug-11 14:31N 01°21' E 103°33'6 5.6
2017-Aug-11 13:30N 01°15' E 103°32'3 7.0
2017-Aug-11 13:00N 01°12' E 103°31'3 5.9
2017-Aug-11 12:30N 01°11' E 103°28'610.5
2017-Aug-11 11:53N 01°13' E 103°23'512.7
2017-Aug-11 11:29N 01°17' E 103°19'  

Dump ship's entire track history